createdAt,value
2022-09-12T04:15:28.034Z,68.61
2022-09-12T04:17:57.184Z,68.55
2022-09-12T04:20:29.611Z,68.48
2022-09-12T04:23:00.772Z,68.93
2022-09-12T04:25:31.852Z,68.94
2022-09-12T04:28:01.084Z,69.01
2022-09-12T04:30:32.626Z,68.96
2022-09-12T04:33:08.147Z,68.37
2022-09-12T04:35:38.159Z,68.91
2022-09-12T04:38:07.351Z,68.56
2022-09-12T04:40:36.948Z,68.10
2022-09-12T04:43:10.136Z,67.88
2022-09-12T04:45:43.439Z,67.50
2022-09-12T04:48:13.170Z,67.52
2022-09-12T04:50:42.288Z,67.30
2022-09-12T04:53:11.537Z,66.62
2022-09-12T04:55:40.697Z,66.37
2022-09-12T04:58:11.889Z,66.36
2022-09-12T05:00:42.502Z,66.93
2022-09-12T05:03:29.086Z,66.60
2022-09-12T05:05:58.435Z,66.05
2022-09-12T05:08:27.855Z,65.65
2022-09-12T05:10:57.683Z,65.97
2022-09-12T05:13:34.469Z,65.61
2022-09-12T05:16:13.973Z,65.79
2022-09-12T05:18:45.423Z,65.48
2022-09-12T05:21:17.970Z,65.30
2022-09-12T05:23:48.246Z,65.46
2022-09-12T05:26:19.595Z,65.28
2022-09-12T05:28:50.181Z,64.25
2022-09-12T05:31:43.971Z,63.56
2022-09-12T05:34:13.485Z,62.60
2022-09-12T05:36:42.765Z,63.14
2022-09-12T05:39:18.253Z,62.99
2022-09-12T05:41:50.118Z,63.59
2022-09-12T05:44:19.298Z,63.70
2022-09-12T05:46:52.016Z,62.97
2022-09-12T05:49:28.058Z,62.64
2022-09-12T05:51:57.283Z,63.25
2022-09-12T05:54:31.607Z,62.97
2022-09-12T05:57:01.096Z,63.30
2022-09-12T05:59:30.522Z,63.60
2022-09-12T06:02:05.829Z,63.49
2022-09-12T06:04:35.006Z,63.37
2022-09-12T06:07:04.245Z,63.22
2022-09-12T06:09:35.542Z,63.28
2022-09-12T06:12:05.898Z,63.75
2022-09-12T06:14:34.992Z,63.48
2022-09-12T06:17:06.258Z,63.68
2022-09-12T06:19:35.303Z,63.63
2022-09-12T06:22:05.590Z,63.48
2022-09-12T06:24:34.998Z,63.21
2022-09-12T06:27:04.098Z,63.27
2022-09-12T06:29:37.032Z,62.78
2022-09-12T06:32:12.285Z,62.54
2022-09-12T06:34:43.488Z,62.45
2022-09-12T06:37:15.127Z,62.08
2022-09-12T06:39:54.473Z,62.07
2022-09-12T06:42:27.921Z,61.95
2022-09-12T06:44:57.453Z,62.04
2022-09-12T06:47:28.818Z,62.17
2022-09-12T06:49:58.085Z,61.82
2022-09-12T06:52:30.268Z,61.56
2022-09-12T06:54:59.780Z,61.82
2022-09-12T06:57:48.643Z,61.66
2022-09-12T07:00:18.466Z,61.20
2022-09-12T07:03:04.611Z,61.71
2022-09-12T07:06:19.773Z,61.82
2022-09-12T07:08:55.128Z,62.09
2022-09-12T07:11:40.392Z,62.80
2022-09-12T07:17:17.850Z,63.42
2022-09-12T07:19:48.817Z,62.86
2022-09-12T07:22:22.881Z,62.63
2022-09-12T07:24:56.168Z,62.92
2022-09-12T07:27:27.006Z,64.64
2022-09-12T07:30:15.666Z,66.17
2022-09-12T07:32:44.999Z,68.77
2022-09-12T07:35:18.537Z,68.69
2022-09-12T07:37:47.704Z,70.60
2022-09-12T07:40:17.040Z,71.50
2022-09-12T07:42:48.241Z,74.16
2022-09-12T07:45:17.734Z,73.13
2022-09-12T07:47:46.837Z,74.94
2022-09-12T07:50:17.618Z,72.21
2022-09-12T07:52:46.700Z,72.67
2022-09-12T07:55:15.898Z,74.46
2022-09-12T07:57:45.322Z,73.30
2022-09-12T08:00:15.878Z,73.92
2022-09-12T08:02:45.186Z,74.57
2022-09-12T08:05:14.362Z,74.83
2022-09-12T08:07:44.981Z,73.61
2022-09-12T08:10:14.189Z,74.83
2022-09-12T08:12:44.501Z,74.50
2022-09-12T08:15:13.837Z,74.39
2022-09-12T08:17:43.488Z,73.93
2022-09-12T08:20:12.782Z,74.81
2022-09-12T08:22:42.055Z,74.29
2022-09-12T08:25:14.334Z,74.42
2022-09-12T08:27:46.226Z,73.65
